Terminal Aerodrome Forecast
Issued by NWS Boston, MA

Home | Current Version | Previous Version | Text Only | Print | Product List | Glossary On
Versions: 1 2 3 4 5 6 7 8 9 10 11 12 13 14 15 16 17 18 19 20 21 22 23 24 25 26 27 28 29 30 31 32 33 34 35 36 37 38 39 40 41 42 43 44 45 46 47
000
FTUS41 KBOX 282324
TAFBOS
TAF
KBOS 282324Z 0100/0206 24005KT P6SM SKC
     FM011500 22005KT P6SM BKN100
     FM012000 20009KT P6SM OVC050
     FM012200 20009KT 3SM -SN OVC050
     FM020100 20008KT 1/2SM SN OVC008=

USA.gov is the U.S. government's official web portal to all federal, state and local government web resources and services.